sensor_id;sensor_type;location;lat;lon;timestamp;temperature;humidity
39019;DHT22;24786;51.984;5.872;2022-12-29T00:02:15;10.60;99.90
39019;DHT22;24786;51.984;5.872;2022-12-29T00:04:41;10.50;99.90
39019;DHT22;24786;51.984;5.872;2022-12-29T00:07:07;10.60;99.90
39019;DHT22;24786;51.984;5.872;2022-12-29T00:09:34;10.70;99.90
39019;DHT22;24786;51.984;5.872;2022-12-29T00:12:00;10.70;99.90
39019;DHT22;24786;51.984;5.872;2022-12-29T00:14:27;10.70;99.90
39019;DHT22;24786;51.984;5.872;2022-12-29T00:17:12;10.70;99.90
39019;DHT22;24786;51.984;5.872;2022-12-29T00:19:38;10.70;99.90
39019;DHT22;24786;51.984;5.872;2022-12-29T00:22:22;10.70;99.90
39019;DHT22;24786;51.984;5.872;2022-12-29T00:25:09;10.70;99.90
39019;DHT22;24786;51.984;5.872;2022-12-29T00:27:53;10.70;99.90
39019;DHT22;24786;51.984;5.872;2022-12-29T00:30:37;10.70;99.90
39019;DHT22;24786;51.984;5.872;2022-12-29T00:33:24;10.70;99.90
39019;DHT22;24786;51.984;5.872;2022-12-29T00:36:20;10.70;99.90
39019;DHT22;24786;51.984;5.872;2022-12-29T00:38:51;10.70;99.90
39019;DHT22;24786;51.984;5.872;2022-12-29T00:41:36;10.70;99.90
39019;DHT22;24786;51.984;5.872;2022-12-29T00:44:20;10.70;99.90
39019;DHT22;24786;51.984;5.872;2022-12-29T00:46:46;10.70;99.90
39019;DHT22;24786;51.984;5.872;2022-12-29T00:49:13;10.70;99.90
39019;DHT22;24786;51.984;5.872;2022-12-29T00:52:05;10.70;99.90
39019;DHT22;24786;51.984;5.872;2022-12-29T00:54:35;10.80;99.90
39019;DHT22;24786;51.984;5.872;2022-12-29T00:57:03;10.80;99.90
39019;DHT22;24786;51.984;5.872;2022-12-29T00:59:29;10.80;99.90
39019;DHT22;24786;51.984;5.872;2022-12-29T01:01:55;10.80;99.90
39019;DHT22;24786;51.984;5.872;2022-12-29T01:04:25;10.80;99.90
39019;DHT22;24786;51.984;5.872;2022-12-29T01:06:51;10.70;99.90
39019;DHT22;24786;51.984;5.872;2022-12-29T01:09:17;10.70;99.90
39019;DHT22;24786;51.984;5.872;2022-12-29T01:12:02;10.70;99.90
39019;DHT22;24786;51.984;5.872;2022-12-29T01:14:28;10.70;99.90
39019;DHT22;24786;51.984;5.872;2022-12-29T01:16:55;10.70;99.90
39019;DHT22;24786;51.984;5.872;2022-12-29T01:19:21;10.80;99.90
39019;DHT22;24786;51.984;5.872;2022-12-29T01:21:47;10.70;99.90
39019;DHT22;24786;51.984;5.872;2022-12-29T01:24:17;10.80;99.90
39019;DHT22;24786;51.984;5.872;2022-12-29T01:26:42;10.80;99.90
39019;DHT22;24786;51.984;5.872;2022-12-29T01:29:09;10.80;99.90
39019;DHT22;24786;51.984;5.872;2022-12-29T01:31:35;10.70;99.90
39019;DHT22;24786;51.984;5.872;2022-12-29T01:34:01;10.70;99.90
39019;DHT22;24786;51.984;5.872;2022-12-29T01:36:27;10.70;99.90
39019;DHT22;24786;51.984;5.872;2022-12-29T01:38:52;10.80;99.90
39019;DHT22;24786;51.984;5.872;2022-12-29T01:41:18;10.70;99.90
39019;DHT22;24786;51.984;5.872;2022-12-29T01:43:50;10.70;99.90
39019;DHT22;24786;51.984;5.872;2022-12-29T01:46:22;10.70;99.90
39019;DHT22;24786;51.984;5.872;2022-12-29T01:49:04;10.70;99.90
39019;DHT22;24786;51.984;5.872;2022-12-29T01:51:37;10.70;99.90
39019;DHT22;24786;51.984;5.872;2022-12-29T01:54:09;10.70;99.90
39019;DHT22;24786;51.984;5.872;2022-12-29T01:56:35;10.70;99.90
39019;DHT22;24786;51.984;5.872;2022-12-29T01:59:06;10.70;99.90
39019;DHT22;24786;51.984;5.872;2022-12-29T02:01:33;10.70;99.90
39019;DHT22;24786;51.984;5.872;2022-12-29T02:03:59;10.70;99.90
39019;DHT22;24786;51.984;5.872;2022-12-29T02:06:29;10.70;99.90
39019;DHT22;24786;51.984;5.872;2022-12-29T02:08:56;10.70;99.90
39019;DHT22;24786;51.984;5.872;2022-12-29T02:11:25;10.70;99.90
39019;DHT22;24786;51.984;5.872;2022-12-29T02:13:52;10.70;99.90
39019;DHT22;24786;51.984;5.872;2022-12-29T02:19:50;10.70;99.90
39019;DHT22;24786;51.984;5.872;2022-12-29T02:34:10;10.80;99.90
39019;DHT22;24786;51.984;5.872;2022-12-29T02:37:03;10.80;99.90
39019;DHT22;24786;51.984;5.872;2022-12-29T02:39:53;10.70;99.90
39019;DHT22;24786;51.984;5.872;2022-12-29T02:45:07;10.70;99.90
39019;DHT22;24786;51.984;5.872;2022-12-29T02:50:44;10.60;99.90
39019;DHT22;24786;51.984;5.872;2022-12-29T02:53:13;10.60;99.90
39019;DHT22;24786;51.984;5.872;2022-12-29T02:55:48;10.50;99.90
39019;DHT22;24786;51.984;5.872;2022-12-29T03:09:01;10.70;99.90
39019;DHT22;24786;51.984;5.872;2022-12-29T03:11:35;10.80;99.90
39019;DHT22;24786;51.984;5.872;2022-12-29T03:17:54;10.80;99.90
39019;DHT22;24786;51.984;5.872;2022-12-29T03:20:39;10.90;99.90
39019;DHT22;24786;51.984;5.872;2022-12-29T03:23:06;10.80;99.90
39019;DHT22;24786;51.984;5.872;2022-12-29T03:25:36;10.70;99.90
39019;DHT22;24786;51.984;5.872;2022-12-29T03:28:06;10.70;99.90
39019;DHT22;24786;51.984;5.872;2022-12-29T03:30:34;10.60;99.90
39019;DHT22;24786;51.984;5.872;2022-12-29T03:33:04;10.60;99.90
39019;DHT22;24786;51.984;5.872;2022-12-29T03:35:34;10.50;99.90
39019;DHT22;24786;51.984;5.872;2022-12-29T03:38:13;10.50;99.90
39019;DHT22;24786;51.984;5.872;2022-12-29T03:40:43;10.50;99.90
39019;DHT22;24786;51.984;5.872;2022-12-29T03:43:10;10.50;99.90
39019;DHT22;24786;51.984;5.872;2022-12-29T03:45:37;10.60;99.90
39019;DHT22;24786;51.984;5.872;2022-12-29T03:48:02;10.50;99.90
39019;DHT22;24786;51.984;5.872;2022-12-29T03:50:28;10.50;99.90
39019;DHT22;24786;51.984;5.872;2022-12-29T03:52:54;10.60;99.90
39019;DHT22;24786;51.984;5.872;2022-12-29T03:55:19;10.50;99.90
39019;DHT22;24786;51.984;5.872;2022-12-29T03:57:45;10.60;99.90
39019;DHT22;24786;51.984;5.872;2022-12-29T04:00:11;10.50;99.90
39019;DHT22;24786;51.984;5.872;2022-12-29T04:02:36;10.60;99.90
39019;DHT22;24786;51.984;5.872;2022-12-29T04:05:02;10.50;99.90
39019;DHT22;24786;51.984;5.872;2022-12-29T04:07:28;10.60;99.90
39019;DHT22;24786;51.984;5.872;2022-12-29T04:09:54;10.60;99.90
39019;DHT22;24786;51.984;5.872;2022-12-29T04:12:25;10.70;99.90
39019;DHT22;24786;51.984;5.872;2022-12-29T04:14:51;10.70;99.90
39019;DHT22;24786;51.984;5.872;2022-12-29T04:17:17;10.60;99.90
39019;DHT22;24786;51.984;5.872;2022-12-29T04:19:42;10.70;99.90
39019;DHT22;24786;51.984;5.872;2022-12-29T04:22:08;10.80;99.90
39019;DHT22;24786;51.984;5.872;2022-12-29T04:24:33;10.70;99.90
39019;DHT22;24786;51.984;5.872;2022-12-29T04:26:59;10.70;99.90
39019;DHT22;24786;51.984;5.872;2022-12-29T04:29:25;10.60;99.90
39019;DHT22;24786;51.984;5.872;2022-12-29T04:31:50;10.70;99.90
39019;DHT22;24786;51.984;5.872;2022-12-29T04:34:16;10.70;99.90
39019;DHT22;24786;51.984;5.872;2022-12-29T04:36:41;10.70;99.90
39019;DHT22;24786;51.984;5.872;2022-12-29T04:39:07;10.70;99.90
39019;DHT22;24786;51.984;5.872;2022-12-29T04:41:33;10.70;99.90
39019;DHT22;24786;51.984;5.872;2022-12-29T04:43:58;10.70;99.90
39019;DHT22;24786;51.984;5.872;2022-12-29T04:46:24;10.70;99.90
39019;DHT22;24786;51.984;5.872;2022-12-29T04:48:50;10.60;99.90
39019;DHT22;24786;51.984;5.872;2022-12-29T04:51:15;10.70;99.90
39019;DHT22;24786;51.984;5.872;2022-12-29T04:53:41;10.60;99.90
39019;DHT22;24786;51.984;5.872;2022-12-29T04:56:07;10.60;99.90
39019;DHT22;24786;51.984;5.872;2022-12-29T04:58:34;10.60;99.90
39019;DHT22;24786;51.984;5.872;2022-12-29T05:01:00;10.50;99.90
39019;DHT22;24786;51.984;5.872;2022-12-29T05:03:26;10.50;99.90
39019;DHT22;24786;51.984;5.872;2022-12-29T05:05:55;10.50;99.90
39019;DHT22;24786;51.984;5.872;2022-12-29T05:08:21;10.50;99.90
39019;DHT22;24786;51.984;5.872;2022-12-29T05:10:47;10.50;99.90
39019;DHT22;24786;51.984;5.872;2022-12-29T05:13:13;10.50;99.90
39019;DHT22;24786;51.984;5.872;2022-12-29T05:15:41;10.50;99.90
39019;DHT22;24786;51.984;5.872;2022-12-29T05:18:11;10.40;99.90
39019;DHT22;24786;51.984;5.872;2022-12-29T05:20:36;10.30;99.90
39019;DHT22;24786;51.984;5.872;2022-12-29T05:23:02;10.40;99.90
39019;DHT22;24786;51.984;5.872;2022-12-29T05:25:27;10.50;99.90
39019;DHT22;24786;51.984;5.872;2022-12-29T05:27:53;10.40;99.90
39019;DHT22;24786;51.984;5.872;2022-12-29T05:30:18;10.40;99.90
39019;DHT22;24786;51.984;5.872;2022-12-29T05:32:44;10.40;99.90
39019;DHT22;24786;51.984;5.872;2022-12-29T05:35:10;10.40;99.90
39019;DHT22;24786;51.984;5.872;2022-12-29T05:37:35;10.30;99.90
39019;DHT22;24786;51.984;5.872;2022-12-29T05:40:04;10.20;99.90
39019;DHT22;24786;51.984;5.872;2022-12-29T05:42:31;10.20;99.90
39019;DHT22;24786;51.984;5.872;2022-12-29T05:44:56;10.20;99.90
39019;DHT22;24786;51.984;5.872;2022-12-29T05:47:22;10.10;99.90
39019;DHT22;24786;51.984;5.872;2022-12-29T05:49:47;10.00;99.90
39019;DHT22;24786;51.984;5.872;2022-12-29T05:52:13;10.00;99.90
39019;DHT22;24786;51.984;5.872;2022-12-29T05:54:39;9.90;99.90
39019;DHT22;24786;51.984;5.872;2022-12-29T05:57:04;9.90;99.90
39019;DHT22;24786;51.984;5.872;2022-12-29T05:59:30;9.90;99.90
39019;DHT22;24786;51.984;5.872;2022-12-29T06:01:55;9.80;99.90
39019;DHT22;24786;51.984;5.872;2022-12-29T06:04:24;9.90;99.90
39019;DHT22;24786;51.984;5.872;2022-12-29T06:06:49;9.80;99.90
39019;DHT22;24786;51.984;5.872;2022-12-29T06:09:15;9.80;99.90
39019;DHT22;24786;51.984;5.872;2022-12-29T06:11:41;9.80;99.90
39019;DHT22;24786;51.984;5.872;2022-12-29T06:14:06;9.90;99.90
39019;DHT22;24786;51.984;5.872;2022-12-29T06:16:32;9.90;99.90
39019;DHT22;24786;51.984;5.872;2022-12-29T06:18:59;10.00;99.90
39019;DHT22;24786;51.984;5.872;2022-12-29T06:21:24;9.90;99.90
39019;DHT22;24786;51.984;5.872;2022-12-29T06:23:50;10.00;99.90
39019;DHT22;24786;51.984;5.872;2022-12-29T06:26:16;10.00;99.90
39019;DHT22;24786;51.984;5.872;2022-12-29T06:28:41;9.90;99.90
39019;DHT22;24786;51.984;5.872;2022-12-29T06:31:09;10.00;99.90
39019;DHT22;24786;51.984;5.872;2022-12-29T06:33:36;9.90;99.90
39019;DHT22;24786;51.984;5.872;2022-12-29T06:36:02;9.90;99.90
39019;DHT22;24786;51.984;5.872;2022-12-29T06:38:27;9.90;99.90
39019;DHT22;24786;51.984;5.872;2022-12-29T06:40:53;9.90;99.90
39019;DHT22;24786;51.984;5.872;2022-12-29T06:43:18;9.90;99.90
39019;DHT22;24786;51.984;5.872;2022-12-29T06:45:44;10.00;99.90
39019;DHT22;24786;51.984;5.872;2022-12-29T06:48:10;9.90;99.90
39019;DHT22;24786;51.984;5.872;2022-12-29T06:50:35;10.00;99.90
39019;DHT22;24786;51.984;5.872;2022-12-29T06:53:04;10.00;99.90
39019;DHT22;24786;51.984;5.872;2022-12-29T06:55:30;10.00;99.90
39019;DHT22;24786;51.984;5.872;2022-12-29T06:57:56;10.00;99.90
39019;DHT22;24786;51.984;5.872;2022-12-29T07:00:25;9.90;99.90
39019;DHT22;24786;51.984;5.872;2022-12-29T07:02:51;10.10;99.90
39019;DHT22;24786;51.984;5.872;2022-12-29T07:05:17;10.10;99.90
39019;DHT22;24786;51.984;5.872;2022-12-29T07:07:43;10.00;99.90
39019;DHT22;24786;51.984;5.872;2022-12-29T07:10:09;10.10;99.90
39019;DHT22;24786;51.984;5.872;2022-12-29T07:12:34;10.00;99.90
39019;DHT22;24786;51.984;5.872;2022-12-29T07:15:11;10.10;99.90
39019;DHT22;24786;51.984;5.872;2022-12-29T07:17:38;10.10;99.90
39019;DHT22;24786;51.984;5.872;2022-12-29T07:20:04;10.10;99.90
39019;DHT22;24786;51.984;5.872;2022-12-29T07:22:30;10.10;99.90
39019;DHT22;24786;51.984;5.872;2022-12-29T07:24:58;10.10;99.90
39019;DHT22;24786;51.984;5.872;2022-12-29T07:27:29;10.00;99.90
39019;DHT22;24786;51.984;5.872;2022-12-29T07:30:07;10.20;99.90
39019;DHT22;24786;51.984;5.872;2022-12-29T07:32:42;10.10;99.90
39019;DHT22;24786;51.984;5.872;2022-12-29T07:35:08;10.20;99.90
39019;DHT22;24786;51.984;5.872;2022-12-29T07:39:59;10.10;99.90
39019;DHT22;24786;51.984;5.872;2022-12-29T07:42:33;10.20;99.90
39019;DHT22;24786;51.984;5.872;2022-12-29T07:44:59;10.20;99.90
39019;DHT22;24786;51.984;5.872;2022-12-29T07:47:25;10.20;99.90
39019;DHT22;24786;51.984;5.872;2022-12-29T07:49:50;10.20;99.90
39019;DHT22;24786;51.984;5.872;2022-12-29T07:52:16;10.20;99.90
39019;DHT22;24786;51.984;5.872;2022-12-29T07:54:41;10.30;99.90
39019;DHT22;24786;51.984;5.872;2022-12-29T07:57:07;10.20;99.90
39019;DHT22;24786;51.984;5.872;2022-12-29T07:59:32;10.20;99.90
39019;DHT22;24786;51.984;5.872;2022-12-29T08:01:58;10.20;99.90
39019;DHT22;24786;51.984;5.872;2022-12-29T08:04:24;10.30;99.90
39019;DHT22;24786;51.984;5.872;2022-12-29T08:06:49;10.30;99.90
39019;DHT22;24786;51.984;5.872;2022-12-29T08:09:15;10.20;99.90
39019;DHT22;24786;51.984;5.872;2022-12-29T08:11:40;10.20;99.90
39019;DHT22;24786;51.984;5.872;2022-12-29T08:14:06;10.20;99.90
39019;DHT22;24786;51.984;5.872;2022-12-29T08:16:35;10.10;99.90
39019;DHT22;24786;51.984;5.872;2022-12-29T08:19:01;10.10;99.90
39019;DHT22;24786;51.984;5.872;2022-12-29T08:21:29;10.10;99.90
39019;DHT22;24786;51.984;5.872;2022-12-29T08:23:55;10.00;99.90
39019;DHT22;24786;51.984;5.872;2022-12-29T08:26:21;10.10;99.90
39019;DHT22;24786;51.984;5.872;2022-12-29T08:28:47;10.10;99.90
39019;DHT22;24786;51.984;5.872;2022-12-29T08:31:12;10.20;99.90
39019;DHT22;24786;51.984;5.872;2022-12-29T08:33:41;10.20;99.90
39019;DHT22;24786;51.984;5.872;2022-12-29T08:36:07;10.20;99.90
39019;DHT22;24786;51.984;5.872;2022-12-29T08:38:33;10.20;99.90
39019;DHT22;24786;51.984;5.872;2022-12-29T08:40:59;10.30;99.90
39019;DHT22;24786;51.984;5.872;2022-12-29T08:43:27;10.30;99.90
39019;DHT22;24786;51.984;5.872;2022-12-29T08:45:53;10.30;99.90
39019;DHT22;24786;51.984;5.872;2022-12-29T08:48:18;10.30;99.90
39019;DHT22;24786;51.984;5.872;2022-12-29T08:50:48;10.30;99.90
39019;DHT22;24786;51.984;5.872;2022-12-29T08:53:13;10.40;99.90
39019;DHT22;24786;51.984;5.872;2022-12-29T08:55:39;10.40;99.90
39019;DHT22;24786;51.984;5.872;2022-12-29T08:58:05;10.50;99.90
39019;DHT22;24786;51.984;5.872;2022-12-29T09:00:30;10.40;99.90
39019;DHT22;24786;51.984;5.872;2022-12-29T09:02:56;10.40;99.90
39019;DHT22;24786;51.984;5.872;2022-12-29T09:05:21;10.40;99.90
39019;DHT22;24786;51.984;5.872;2022-12-29T09:07:47;10.40;99.90
39019;DHT22;24786;51.984;5.872;2022-12-29T09:10:13;10.40;99.90
39019;DHT22;24786;51.984;5.872;2022-12-29T09:12:38;10.40;99.90
39019;DHT22;24786;51.984;5.872;2022-12-29T09:15:07;10.50;99.90
39019;DHT22;24786;51.984;5.872;2022-12-29T09:17:33;10.40;99.90
39019;DHT22;24786;51.984;5.872;2022-12-29T09:20:12;10.40;99.90
39019;DHT22;24786;51.984;5.872;2022-12-29T09:22:38;10.40;99.90
39019;DHT22;24786;51.984;5.872;2022-12-29T09:25:04;10.30;99.90
39019;DHT22;24786;51.984;5.872;2022-12-29T09:27:30;10.30;99.90
39019;DHT22;24786;51.984;5.872;2022-12-29T09:29:56;10.30;99.90
39019;DHT22;24786;51.984;5.872;2022-12-29T09:32:22;10.20;99.90
39019;DHT22;24786;51.984;5.872;2022-12-29T09:34:47;10.20;99.90
39019;DHT22;24786;51.984;5.872;2022-12-29T09:37:13;10.30;99.90
39019;DHT22;24786;51.984;5.872;2022-12-29T09:39:38;10.20;99.90
39019;DHT22;24786;51.984;5.872;2022-12-29T09:47:32;10.20;99.90
39019;DHT22;24786;51.984;5.872;2022-12-29T09:52:52;10.20;99.90
39019;DHT22;24786;51.984;5.872;2022-12-29T09:55:47;10.10;99.90
39019;DHT22;24786;51.984;5.872;2022-12-29T09:58:16;10.20;99.90
39019;DHT22;24786;51.984;5.872;2022-12-29T10:00:58;10.20;99.90
39019;DHT22;24786;51.984;5.872;2022-12-29T10:03:51;10.10;99.90
39019;DHT22;24786;51.984;5.872;2022-12-29T10:07:09;10.10;99.90
39019;DHT22;24786;51.984;5.872;2022-12-29T10:09:15;10.10;99.90
39019;DHT22;24786;51.984;5.872;2022-12-29T10:11:54;10.10;99.90
39019;DHT22;24786;51.984;5.872;2022-12-29T10:17:34;9.90;99.90
39019;DHT22;24786;51.984;5.872;2022-12-29T10:20:14;9.90;99.90
39019;DHT22;24786;51.984;5.872;2022-12-29T10:22:59;9.90;99.90
39019;DHT22;24786;51.984;5.872;2022-12-29T10:25:30;9.90;99.90
39019;DHT22;24786;51.984;5.872;2022-12-29T10:27:59;9.80;99.90
39019;DHT22;24786;51.984;5.872;2022-12-29T10:30:26;9.80;99.90
39019;DHT22;24786;51.984;5.872;2022-12-29T10:32:57;9.80;99.90
39019;DHT22;24786;51.984;5.872;2022-12-29T10:35:31;9.70;99.90
39019;DHT22;24786;51.984;5.872;2022-12-29T10:38:22;9.70;99.90
39019;DHT22;24786;51.984;5.872;2022-12-29T10:40:57;9.70;99.90
39019;DHT22;24786;51.984;5.872;2022-12-29T10:43:29;9.70;99.90
39019;DHT22;24786;51.984;5.872;2022-12-29T10:46:03;9.60;99.90
39019;DHT22;24786;51.984;5.872;2022-12-29T10:48:34;9.60;99.90
39019;DHT22;24786;51.984;5.872;2022-12-29T10:51:03;9.70;99.90
39019;DHT22;24786;51.984;5.872;2022-12-29T10:53:40;9.60;99.90
39019;DHT22;24786;51.984;5.872;2022-12-29T10:56:29;9.60;99.90
39019;DHT22;24786;51.984;5.872;2022-12-29T10:58:57;9.60;99.90
39019;DHT22;24786;51.984;5.872;2022-12-29T11:01:32;9.60;99.90
39019;DHT22;24786;51.984;5.872;2022-12-29T11:04:30;9.60;99.90
39019;DHT22;24786;51.984;5.872;2022-12-29T11:06:58;9.60;99.90
39019;DHT22;24786;51.984;5.872;2022-12-29T11:09:28;9.70;99.90
39019;DHT22;24786;51.984;5.872;2022-12-29T11:11:54;9.60;99.90
39019;DHT22;24786;51.984;5.872;2022-12-29T11:14:26;9.70;99.90
39019;DHT22;24786;51.984;5.872;2022-12-29T11:17:03;9.60;99.90
39019;DHT22;24786;51.984;5.872;2022-12-29T11:19:31;9.70;99.90
39019;DHT22;24786;51.984;5.872;2022-12-29T11:24:46;9.80;99.90
39019;DHT22;24786;51.984;5.872;2022-12-29T11:27:21;9.80;99.90
39019;DHT22;24786;51.984;5.872;2022-12-29T11:29:49;9.80;99.90
39019;DHT22;24786;51.984;5.872;2022-12-29T11:32:26;9.90;99.90
39019;DHT22;24786;51.984;5.872;2022-12-29T11:34:52;9.90;99.90
39019;DHT22;24786;51.984;5.872;2022-12-29T11:37:19;9.90;99.90
39019;DHT22;24786;51.984;5.872;2022-12-29T11:39:58;9.90;99.90
39019;DHT22;24786;51.984;5.872;2022-12-29T11:42:37;9.90;99.90
39019;DHT22;24786;51.984;5.872;2022-12-29T11:45:16;10.00;99.90
39019;DHT22;24786;51.984;5.872;2022-12-29T11:47:48;10.00;99.90
39019;DHT22;24786;51.984;5.872;2022-12-29T11:50:29;10.10;99.90
39019;DHT22;24786;51.984;5.872;2022-12-29T11:53:03;10.20;99.90
39019;DHT22;24786;51.984;5.872;2022-12-29T11:55:29;10.10;99.90
39019;DHT22;24786;51.984;5.872;2022-12-29T11:57:58;10.10;99.90
39019;DHT22;24786;51.984;5.872;2022-12-29T12:00:25;10.10;99.90
39019;DHT22;24786;51.984;5.872;2022-12-29T12:03:03;10.20;99.90
39019;DHT22;24786;51.984;5.872;2022-12-29T12:05:47;10.20;99.90
39019;DHT22;24786;51.984;5.872;2022-12-29T12:11:07;10.10;99.90
39019;DHT22;24786;51.984;5.872;2022-12-29T12:13:58;10.10;99.90
39019;DHT22;24786;51.984;5.872;2022-12-29T12:19:20;10.10;99.90
39019;DHT22;24786;51.984;5.872;2022-12-29T12:21:54;10.10;99.90
39019;DHT22;24786;51.984;5.872;2022-12-29T12:27:32;10.20;99.90
39019;DHT22;24786;51.984;5.872;2022-12-29T12:30:16;10.30;99.90
39019;DHT22;24786;51.984;5.872;2022-12-29T12:44:07;10.40;99.90
39019;DHT22;24786;51.984;5.872;2022-12-29T12:49:20;10.50;99.90
39019;DHT22;24786;51.984;5.872;2022-12-29T12:52:16;10.50;99.90
39019;DHT22;24786;51.984;5.872;2022-12-29T12:55:10;10.60;99.90
39019;DHT22;24786;51.984;5.872;2022-12-29T12:58:09;10.70;99.90
39019;DHT22;24786;51.984;5.872;2022-12-29T13:00:54;10.60;99.90
39019;DHT22;24786;51.984;5.872;2022-12-29T13:06:39;10.60;99.90
39019;DHT22;24786;51.984;5.872;2022-12-29T13:17:28;10.40;99.90
39019;DHT22;24786;51.984;5.872;2022-12-29T13:23:17;10.40;99.90
39019;DHT22;24786;51.984;5.872;2022-12-29T13:31:43;10.30;99.90
39019;DHT22;24786;51.984;5.872;2022-12-29T13:37:19;10.30;99.90
39019;DHT22;24786;51.984;5.872;2022-12-29T13:39:55;10.20;99.90
39019;DHT22;24786;51.984;5.872;2022-12-29T13:42:22;10.10;99.90
39019;DHT22;24786;51.984;5.872;2022-12-29T13:44:57;10.10;99.90
39019;DHT22;24786;51.984;5.872;2022-12-29T13:47:42;10.20;99.90
39019;DHT22;24786;51.984;5.872;2022-12-29T13:50:21;10.20;99.90
39019;DHT22;24786;51.984;5.872;2022-12-29T13:56:10;10.20;99.90
39019;DHT22;24786;51.984;5.872;2022-12-29T13:59:02;10.20;99.90
39019;DHT22;24786;51.984;5.872;2022-12-29T14:01:43;10.20;99.90
39019;DHT22;24786;51.984;5.872;2022-12-29T14:04:16;10.20;99.90
39019;DHT22;24786;51.984;5.872;2022-12-29T14:06:52;10.20;99.90
39019;DHT22;24786;51.984;5.872;2022-12-29T14:14:45;10.20;99.90
39019;DHT22;24786;51.984;5.872;2022-12-29T14:17:11;10.10;99.90
39019;DHT22;24786;51.984;5.872;2022-12-29T14:19:40;10.20;99.90
39019;DHT22;24786;51.984;5.872;2022-12-29T14:22:07;10.10;99.90
39019;DHT22;24786;51.984;5.872;2022-12-29T14:38:17;9.70;99.90
39019;DHT22;24786;51.984;5.872;2022-12-29T14:40:44;9.70;99.90
39019;DHT22;24786;51.984;5.872;2022-12-29T14:43:18;9.60;99.90
39019;DHT22;24786;51.984;5.872;2022-12-29T14:45:53;9.60;99.90
39019;DHT22;24786;51.984;5.872;2022-12-29T14:48:38;9.50;99.90
39019;DHT22;24786;51.984;5.872;2022-12-29T14:51:42;9.50;99.90
39019;DHT22;24786;51.984;5.872;2022-12-29T14:54:45;9.40;99.90
39019;DHT22;24786;51.984;5.872;2022-12-29T14:57:29;9.40;99.90
39019;DHT22;24786;51.984;5.872;2022-12-29T15:00:03;9.30;99.90
39019;DHT22;24786;51.984;5.872;2022-12-29T15:02:34;9.50;99.90
39019;DHT22;24786;51.984;5.872;2022-12-29T15:05:03;9.30;99.90
39019;DHT22;24786;51.984;5.872;2022-12-29T15:07:29;9.30;99.90
39019;DHT22;24786;51.984;5.872;2022-12-29T15:10:10;9.30;99.90
39019;DHT22;24786;51.984;5.872;2022-12-29T15:12:45;9.30;99.90
39019;DHT22;24786;51.984;5.872;2022-12-29T15:15:22;9.30;99.90
39019;DHT22;24786;51.984;5.872;2022-12-29T15:17:51;9.30;99.90
39019;DHT22;24786;51.984;5.872;2022-12-29T15:20:22;9.30;99.90
39019;DHT22;24786;51.984;5.872;2022-12-29T15:22:57;9.20;99.90
39019;DHT22;24786;51.984;5.872;2022-12-29T15:25:23;9.20;99.90
39019;DHT22;24786;51.984;5.872;2022-12-29T15:28:01;9.20;99.90
39019;DHT22;24786;51.984;5.872;2022-12-29T15:30:28;9.20;99.90
39019;DHT22;24786;51.984;5.872;2022-12-29T15:32:54;9.20;99.90
39019;DHT22;24786;51.984;5.872;2022-12-29T15:35:37;9.20;99.90
39019;DHT22;24786;51.984;5.872;2022-12-29T15:38:20;9.20;99.90
39019;DHT22;24786;51.984;5.872;2022-12-29T15:40:53;9.20;99.90
39019;DHT22;24786;51.984;5.872;2022-12-29T15:43:37;9.20;99.90
39019;DHT22;24786;51.984;5.872;2022-12-29T15:46:07;9.20;99.90
39019;DHT22;24786;51.984;5.872;2022-12-29T15:48:32;9.10;99.90
39019;DHT22;24786;51.984;5.872;2022-12-29T15:50:58;9.20;99.90
39019;DHT22;24786;51.984;5.872;2022-12-29T15:53:30;9.20;99.90
39019;DHT22;24786;51.984;5.872;2022-12-29T15:56:07;9.20;99.90
39019;DHT22;24786;51.984;5.872;2022-12-29T15:58:49;9.20;99.90
39019;DHT22;24786;51.984;5.872;2022-12-29T16:03:54;9.20;99.90
39019;DHT22;24786;51.984;5.872;2022-12-29T16:09:28;9.20;99.90
39019;DHT22;24786;51.984;5.872;2022-12-29T16:11:57;9.20;99.90
39019;DHT22;24786;51.984;5.872;2022-12-29T16:17:16;9.20;99.90
39019;DHT22;24786;51.984;5.872;2022-12-29T16:19:50;9.10;99.90
39019;DHT22;24786;51.984;5.872;2022-12-29T16:22:29;9.20;99.90
39019;DHT22;24786;51.984;5.872;2022-12-29T16:27:49;9.20;99.90
39019;DHT22;24786;51.984;5.872;2022-12-29T16:30:25;9.20;99.90
39019;DHT22;24786;51.984;5.872;2022-12-29T16:32:53;9.20;99.90
39019;DHT22;24786;51.984;5.872;2022-12-29T16:35:45;9.20;99.90
39019;DHT22;24786;51.984;5.872;2022-12-29T16:41:31;9.10;99.90
39019;DHT22;24786;51.984;5.872;2022-12-29T16:44:27;9.10;99.90
39019;DHT22;24786;51.984;5.872;2022-12-29T16:49:37;9.00;99.90
39019;DHT22;24786;51.984;5.872;2022-12-29T16:52:33;9.00;99.90
39019;DHT22;24786;51.984;5.872;2022-12-29T16:55:00;8.90;99.90
39019;DHT22;24786;51.984;5.872;2022-12-29T16:57:34;8.80;99.90
39019;DHT22;24786;51.984;5.872;2022-12-29T17:00:18;8.80;99.90
39019;DHT22;24786;51.984;5.872;2022-12-29T17:03:03;8.80;99.90
39019;DHT22;24786;51.984;5.872;2022-12-29T17:05:29;8.80;99.90
39019;DHT22;24786;51.984;5.872;2022-12-29T17:07:54;8.80;99.90
39019;DHT22;24786;51.984;5.872;2022-12-29T17:10:26;8.80;99.90
39019;DHT22;24786;51.984;5.872;2022-12-29T17:13:11;8.80;99.90
39019;DHT22;24786;51.984;5.872;2022-12-29T17:15:37;8.80;99.90
39019;DHT22;24786;51.984;5.872;2022-12-29T17:18:03;8.80;99.90
39019;DHT22;24786;51.984;5.872;2022-12-29T17:20:30;8.70;99.90
39019;DHT22;24786;51.984;5.872;2022-12-29T17:23:04;8.80;99.90
39019;DHT22;24786;51.984;5.872;2022-12-29T17:25:38;8.70;99.90
39019;DHT22;24786;51.984;5.872;2022-12-29T17:28:20;8.70;99.90
39019;DHT22;24786;51.984;5.872;2022-12-29T17:30:51;8.60;99.90
39019;DHT22;24786;51.984;5.872;2022-12-29T17:33:35;8.60;99.90
39019;DHT22;24786;51.984;5.872;2022-12-29T17:36:01;8.60;99.90
39019;DHT22;24786;51.984;5.872;2022-12-29T17:38:31;8.60;99.90
39019;DHT22;24786;51.984;5.872;2022-12-29T17:40:59;8.50;99.90
39019;DHT22;24786;51.984;5.872;2022-12-29T17:43:25;8.50;99.90
39019;DHT22;24786;51.984;5.872;2022-12-29T17:45:56;8.50;99.90
39019;DHT22;24786;51.984;5.872;2022-12-29T17:48:24;8.50;99.90
39019;DHT22;24786;51.984;5.872;2022-12-29T17:50:52;8.50;99.90
39019;DHT22;24786;51.984;5.872;2022-12-29T17:53:23;8.50;99.90
39019;DHT22;24786;51.984;5.872;2022-12-29T17:55:50;8.50;99.90
39019;DHT22;24786;51.984;5.872;2022-12-29T18:00:44;8.50;99.90
39019;DHT22;24786;51.984;5.872;2022-12-29T18:03:31;8.60;99.90
39019;DHT22;24786;51.984;5.872;2022-12-29T18:05:57;8.40;99.90
39019;DHT22;24786;51.984;5.872;2022-12-29T18:08:23;8.30;99.90
39019;DHT22;24786;51.984;5.872;2022-12-29T18:10:53;8.30;99.90
39019;DHT22;24786;51.984;5.872;2022-12-29T18:13:24;8.30;99.90
39019;DHT22;24786;51.984;5.872;2022-12-29T18:15:51;8.30;99.90
39019;DHT22;24786;51.984;5.872;2022-12-29T18:18:23;8.30;99.90
39019;DHT22;24786;51.984;5.872;2022-12-29T18:20:52;8.10;99.90